McAdoo, TX (79243)

12:07 PM CDT on April 01, 2015 (GMT -0500)
Afton | | Change Station
CLOSE
Current Station
Personal Weather Station
Location: Afton, TX
Elevation: 2559 ft
Nearby Weather Stations
Active Advisory: Fire Weather Watch

Elev 2559 ft 33.77 °N, 100.81 °W | Updated 7 minutes ago

Clear
Clear
79.2 °F
Feels Like 79 °F
N
0.0
Wind Variable Wind from SE
Gusts 0.0 mph

Today
High -- | Low -- °F
--% Chance of Precip.
Yesterday
High -- | Low -- °F
Precip. -- in
7:31 AM 8:04 PM
Waxing Gibbous, 93% visible
Pressure 29.76 in
Visibility 10.0 miles
Clouds Few 26000 ft
Heat Index 79 °F
Dew Point 53 °F
Humidity 40%
Rainfall 0.00 in
Snow Depth Not available.
UV 6.2 out of 12
Pollen 11.10 out of 12
Air Quality Not available.
Flu Activity Not available.
METAR KLBB 011653Z 23012KT 10SM FEW260 24/08 A2988 RMK AO2 SLP076 T02390078

More Conditions Fewer Conditions

Pressure 29.76 in
Visibility 10.0 miles
Clouds Few 26000 ft
Heat Index 79 °F
Dew Point 53 °F
Humidity 40%
Rainfall 0.00 in
Snow Depth Not available.
UV 6.2 out of 12
Pollen 11.10 out of 12
Air Quality Not available.
Flu Activity Not available.
METAR KLBB 011653Z 23012KT 10SM FEW260 24/08 A2988 RMK AO2 SLP076 T02390078

More Conditions Fewer Conditions

10-Day Weather Forecast

Almanac

Astronomy

Apr. 01, 2015 Rise Set
Actual Time
Civil Twilight
Nautical Twilight
Astronomical Twilight
Moon
Length of Visible Light
Length of Day
Tomorrow will be .
, % of the Moon is Illuminated

Today's Extremes

State Highs State Lows

Community

WunderPhotos

Upload Photos

1,810,011 photos uploaded!

WunderBlogs® & News

Nearby

Air Quality

  Air Quality AQ Index Pollutant
Not available.

Snow Depth

Station Depth Elevation

Earthquake Activity

City Distance Mag. Time & Date
Minimum magnitude displayed is 2.5.

Coastal Water Temperatures

Place Temperature

Stations

Nearby Weather Stations

Station Location Temp. Windchill Dew Point Humidity Wind Precip. Elev Updated Type
                   
Fire Weather Watch
Statement as of 5:57 AM CDT on April 01, 2015

... Fire Weather Watch in effect from Thursday afternoon through
Thursday evening for the southern Texas Panhandle... South Plains
and rolling plains for relative humidities below 15 percent... wind
speeds in excess of 20 mph at the 20 foot level... and a high fire
danger...

The National Weather Service in Lubbock has issued a Fire Weather
Watch... which is in effect from Thursday afternoon through
Thursday evening.

* Affected area... the southern Texas Panhandle... South Plains and
rolling plains.

* Wind... sustained from the southwest at 20 to 30 mph.

* Humidity... 5 to 15 percent.

* Fuels... dry and cured.

* Timing... from midday through mid-evening.

* Impacts... any fires that develop will likely spread rapidly.
Outdoor burning is highly discouraged.

Precautionary/preparedness actions...

A Fire Weather Watch means that critical fire weather conditions
are forecast to occur. Listen for later forecasts and possible
red flag warnings.